sensor_id;sensor_type;location;lat;lon;timestamp;P1;durP1;ratioP1;P2;durP2;ratioP2
28838;SDS011;15971;50.772;6.100;2022-08-30T00:01:06;9.48;;;3.53;;
28838;SDS011;15971;50.772;6.100;2022-08-30T00:03:35;7.05;;;3.40;;
28838;SDS011;15971;50.772;6.100;2022-08-30T00:06:06;11.73;;;3.72;;
28838;SDS011;15971;50.772;6.100;2022-08-30T00:08:33;10.50;;;3.67;;
28838;SDS011;15971;50.772;6.100;2022-08-30T00:11:00;6.80;;;3.42;;
28838;SDS011;15971;50.772;6.100;2022-08-30T00:13:28;7.80;;;3.30;;
28838;SDS011;15971;50.772;6.100;2022-08-30T00:15:55;8.95;;;3.80;;
28838;SDS011;15971;50.772;6.100;2022-08-30T00:18:20;15.07;;;3.92;;
28838;SDS011;15971;50.772;6.100;2022-08-30T00:20:47;11.82;;;3.17;;
28838;SDS011;15971;50.772;6.100;2022-08-30T00:23:13;10.57;;;3.80;;
28838;SDS011;15971;50.772;6.100;2022-08-30T00:25:39;8.43;;;3.40;;
28838;SDS011;15971;50.772;6.100;2022-08-30T00:28:05;11.90;;;3.97;;
28838;SDS011;15971;50.772;6.100;2022-08-30T00:30:31;13.38;;;4.43;;
28838;SDS011;15971;50.772;6.100;2022-08-30T00:32:57;8.95;;;3.88;;
28838;SDS011;15971;50.772;6.100;2022-08-30T00:35:23;9.48;;;3.58;;
28838;SDS011;15971;50.772;6.100;2022-08-30T00:37:49;13.40;;;3.75;;
28838;SDS011;15971;50.772;6.100;2022-08-30T00:40:16;8.85;;;3.85;;
28838;SDS011;15971;50.772;6.100;2022-08-30T00:42:44;13.57;;;3.83;;
28838;SDS011;15971;50.772;6.100;2022-08-30T00:45:20;9.38;;;4.10;;
28838;SDS011;15971;50.772;6.100;2022-08-30T00:47:52;11.05;;;3.67;;
28838;SDS011;15971;50.772;6.100;2022-08-30T00:50:19;7.03;;;3.33;;
28838;SDS011;15971;50.772;6.100;2022-08-30T00:52:48;11.57;;;2.90;;
28838;SDS011;15971;50.772;6.100;2022-08-30T00:55:17;10.57;;;3.28;;
28838;SDS011;15971;50.772;6.100;2022-08-30T00:57:44;11.02;;;3.67;;
28838;SDS011;15971;50.772;6.100;2022-08-30T01:00:12;10.73;;;3.85;;
28838;SDS011;15971;50.772;6.100;2022-08-30T01:02:39;9.68;;;3.33;;
28838;SDS011;15971;50.772;6.100;2022-08-30T01:05:06;10.65;;;4.20;;
28838;SDS011;15971;50.772;6.100;2022-08-30T01:07:34;13.15;;;3.50;;
28838;SDS011;15971;50.772;6.100;2022-08-30T01:10:01;6.57;;;3.20;;
28838;SDS011;15971;50.772;6.100;2022-08-30T01:12:28;10.73;;;3.50;;
28838;SDS011;15971;50.772;6.100;2022-08-30T01:14:54;11.23;;;3.65;;
28838;SDS011;15971;50.772;6.100;2022-08-30T01:17:21;6.50;;;3.63;;
28838;SDS011;15971;50.772;6.100;2022-08-30T01:19:57;7.43;;;3.40;;
28838;SDS011;15971;50.772;6.100;2022-08-30T01:22:35;8.90;;;3.63;;
28838;SDS011;15971;50.772;6.100;2022-08-30T01:25:13;11.40;;;3.67;;
28838;SDS011;15971;50.772;6.100;2022-08-30T01:27:52;10.15;;;3.63;;
28838;SDS011;15971;50.772;6.100;2022-08-30T01:30:23;13.93;;;3.90;;
28838;SDS011;15971;50.772;6.100;2022-08-30T01:32:49;10.50;;;3.78;;
28838;SDS011;15971;50.772;6.100;2022-08-30T01:35:21;7.13;;;3.13;;
28838;SDS011;15971;50.772;6.100;2022-08-30T01:37:46;10.52;;;4.03;;
28838;SDS011;15971;50.772;6.100;2022-08-30T01:40:13;8.88;;;3.28;;
28838;SDS011;15971;50.772;6.100;2022-08-30T01:42:40;18.70;;;3.70;;
28838;SDS011;15971;50.772;6.100;2022-08-30T01:45:06;10.45;;;3.47;;
28838;SDS011;15971;50.772;6.100;2022-08-30T01:47:32;7.07;;;3.15;;
28838;SDS011;15971;50.772;6.100;2022-08-30T01:49:58;9.70;;;3.63;;
28838;SDS011;15971;50.772;6.100;2022-08-30T01:52:24;10.23;;;3.08;;
28838;SDS011;15971;50.772;6.100;2022-08-30T01:54:50;8.82;;;3.67;;
28838;SDS011;15971;50.772;6.100;2022-08-30T01:57:18;9.63;;;3.70;;
28838;SDS011;15971;50.772;6.100;2022-08-30T01:59:46;10.07;;;3.67;;
28838;SDS011;15971;50.772;6.100;2022-08-30T02:02:14;8.77;;;4.05;;
28838;SDS011;15971;50.772;6.100;2022-08-30T02:04:42;6.00;;;3.53;;
28838;SDS011;15971;50.772;6.100;2022-08-30T02:07:07;10.48;;;3.40;;
28838;SDS011;15971;50.772;6.100;2022-08-30T02:09:33;13.70;;;4.35;;
28838;SDS011;15971;50.772;6.100;2022-08-30T02:11:59;10.90;;;3.45;;
28838;SDS011;15971;50.772;6.100;2022-08-30T02:14:25;12.20;;;4.03;;
28838;SDS011;15971;50.772;6.100;2022-08-30T02:16:51;7.07;;;2.97;;
28838;SDS011;15971;50.772;6.100;2022-08-30T02:19:17;7.90;;;3.40;;
28838;SDS011;15971;50.772;6.100;2022-08-30T02:21:42;12.38;;;3.03;;
28838;SDS011;15971;50.772;6.100;2022-08-30T02:24:08;8.40;;;3.67;;
28838;SDS011;15971;50.772;6.100;2022-08-30T02:26:34;11.32;;;4.28;;
28838;SDS011;15971;50.772;6.100;2022-08-30T02:29:00;9.80;;;3.45;;
28838;SDS011;15971;50.772;6.100;2022-08-30T02:31:26;8.45;;;3.50;;
28838;SDS011;15971;50.772;6.100;2022-08-30T02:33:52;8.98;;;3.50;;
28838;SDS011;15971;50.772;6.100;2022-08-30T02:36:18;10.60;;;3.53;;
28838;SDS011;15971;50.772;6.100;2022-08-30T02:38:45;10.45;;;3.65;;
28838;SDS011;15971;50.772;6.100;2022-08-30T02:41:11;14.00;;;4.45;;
28838;SDS011;15971;50.772;6.100;2022-08-30T02:43:37;8.13;;;4.07;;
28838;SDS011;15971;50.772;6.100;2022-08-30T02:46:03;10.25;;;3.97;;
28838;SDS011;15971;50.772;6.100;2022-08-30T02:48:28;10.80;;;3.15;;
28838;SDS011;15971;50.772;6.100;2022-08-30T02:50:54;9.77;;;3.28;;
28838;SDS011;15971;50.772;6.100;2022-08-30T02:53:20;8.20;;;3.30;;
28838;SDS011;15971;50.772;6.100;2022-08-30T02:55:46;6.97;;;3.42;;
28838;SDS011;15971;50.772;6.100;2022-08-30T02:58:13;8.23;;;3.55;;
28838;SDS011;15971;50.772;6.100;2022-08-30T03:00:39;11.25;;;3.72;;
28838;SDS011;15971;50.772;6.100;2022-08-30T03:03:05;9.43;;;3.78;;
28838;SDS011;15971;50.772;6.100;2022-08-30T03:05:31;12.10;;;3.67;;
28838;SDS011;15971;50.772;6.100;2022-08-30T03:07:58;9.70;;;3.30;;
28838;SDS011;15971;50.772;6.100;2022-08-30T03:10:24;7.35;;;3.63;;
28838;SDS011;15971;50.772;6.100;2022-08-30T03:12:51;10.57;;;4.32;;
28838;SDS011;15971;50.772;6.100;2022-08-30T03:15:18;11.77;;;3.83;;
28838;SDS011;15971;50.772;6.100;2022-08-30T03:17:44;20.88;;;4.38;;
28838;SDS011;15971;50.772;6.100;2022-08-30T03:20:10;10.15;;;3.58;;
28838;SDS011;15971;50.772;6.100;2022-08-30T03:22:36;6.22;;;3.58;;
28838;SDS011;15971;50.772;6.100;2022-08-30T03:25:02;10.95;;;3.25;;
28838;SDS011;15971;50.772;6.100;2022-08-30T03:27:30;11.75;;;3.38;;
28838;SDS011;15971;50.772;6.100;2022-08-30T03:29:56;8.23;;;3.47;;
28838;SDS011;15971;50.772;6.100;2022-08-30T03:32:22;9.63;;;4.07;;
28838;SDS011;15971;50.772;6.100;2022-08-30T03:34:48;8.45;;;4.10;;
28838;SDS011;15971;50.772;6.100;2022-08-30T03:37:14;12.75;;;3.38;;
28838;SDS011;15971;50.772;6.100;2022-08-30T03:39:41;11.73;;;3.70;;
28838;SDS011;15971;50.772;6.100;2022-08-30T03:42:06;12.85;;;4.00;;
28838;SDS011;15971;50.772;6.100;2022-08-30T03:44:32;16.50;;;4.25;;
28838;SDS011;15971;50.772;6.100;2022-08-30T03:46:58;12.93;;;3.25;;
28838;SDS011;15971;50.772;6.100;2022-08-30T03:49:23;8.77;;;3.47;;
28838;SDS011;15971;50.772;6.100;2022-08-30T03:51:49;9.55;;;3.63;;
28838;SDS011;15971;50.772;6.100;2022-08-30T03:54:15;8.77;;;3.08;;
28838;SDS011;15971;50.772;6.100;2022-08-30T03:56:41;9.95;;;3.38;;
28838;SDS011;15971;50.772;6.100;2022-08-30T03:59:07;10.35;;;3.95;;
28838;SDS011;15971;50.772;6.100;2022-08-30T04:01:33;12.30;;;3.47;;
28838;SDS011;15971;50.772;6.100;2022-08-30T04:03:58;11.85;;;3.95;;
28838;SDS011;15971;50.772;6.100;2022-08-30T04:06:24;8.13;;;3.47;;
28838;SDS011;15971;50.772;6.100;2022-08-30T04:08:50;13.98;;;4.57;;
28838;SDS011;15971;50.772;6.100;2022-08-30T04:11:15;14.95;;;3.83;;
28838;SDS011;15971;50.772;6.100;2022-08-30T04:13:42;11.27;;;3.40;;
28838;SDS011;15971;50.772;6.100;2022-08-30T04:16:07;7.68;;;3.45;;
28838;SDS011;15971;50.772;6.100;2022-08-30T04:18:33;8.13;;;3.60;;
28838;SDS011;15971;50.772;6.100;2022-08-30T04:20:59;10.82;;;3.75;;
28838;SDS011;15971;50.772;6.100;2022-08-30T04:23:25;7.90;;;3.22;;
28838;SDS011;15971;50.772;6.100;2022-08-30T04:25:52;10.07;;;3.90;;
28838;SDS011;15971;50.772;6.100;2022-08-30T04:28:18;13.25;;;4.50;;
28838;SDS011;15971;50.772;6.100;2022-08-30T04:30:45;7.70;;;3.42;;
28838;SDS011;15971;50.772;6.100;2022-08-30T04:33:11;9.10;;;3.75;;
28838;SDS011;15971;50.772;6.100;2022-08-30T04:35:40;11.63;;;3.53;;
28838;SDS011;15971;50.772;6.100;2022-08-30T04:38:07;11.13;;;4.18;;
28838;SDS011;15971;50.772;6.100;2022-08-30T04:40:32;10.65;;;4.03;;
28838;SDS011;15971;50.772;6.100;2022-08-30T04:42:58;9.52;;;4.20;;
28838;SDS011;15971;50.772;6.100;2022-08-30T04:45:24;12.73;;;4.63;;
28838;SDS011;15971;50.772;6.100;2022-08-30T04:47:49;11.63;;;4.00;;
28838;SDS011;15971;50.772;6.100;2022-08-30T04:50:16;9.18;;;3.92;;
28838;SDS011;15971;50.772;6.100;2022-08-30T04:52:43;14.27;;;4.07;;
28838;SDS011;15971;50.772;6.100;2022-08-30T04:55:09;10.07;;;3.80;;
28838;SDS011;15971;50.772;6.100;2022-08-30T04:57:36;14.95;;;3.83;;
28838;SDS011;15971;50.772;6.100;2022-08-30T05:00:03;14.90;;;4.60;;
28838;SDS011;15971;50.772;6.100;2022-08-30T05:02:32;13.10;;;3.20;;
28838;SDS011;15971;50.772;6.100;2022-08-30T05:04:58;7.93;;;3.92;;
28838;SDS011;15971;50.772;6.100;2022-08-30T05:07:43;14.23;;;4.60;;
28838;SDS011;15971;50.772;6.100;2022-08-30T05:10:09;11.38;;;4.10;;
28838;SDS011;15971;50.772;6.100;2022-08-30T05:12:34;15.23;;;4.35;;
28838;SDS011;15971;50.772;6.100;2022-08-30T05:15:00;11.52;;;3.72;;
28838;SDS011;15971;50.772;6.100;2022-08-30T05:17:25;10.88;;;4.10;;
28838;SDS011;15971;50.772;6.100;2022-08-30T05:19:51;12.63;;;4.25;;
28838;SDS011;15971;50.772;6.100;2022-08-30T05:22:16;9.45;;;3.67;;
28838;SDS011;15971;50.772;6.100;2022-08-30T05:24:42;13.68;;;4.25;;
28838;SDS011;15971;50.772;6.100;2022-08-30T05:27:08;9.10;;;4.95;;
28838;SDS011;15971;50.772;6.100;2022-08-30T05:29:33;13.70;;;3.55;;
28838;SDS011;15971;50.772;6.100;2022-08-30T05:31:59;11.15;;;4.32;;
28838;SDS011;15971;50.772;6.100;2022-08-30T05:34:25;12.05;;;4.72;;
28838;SDS011;15971;50.772;6.100;2022-08-30T05:36:53;20.85;;;3.92;;
28838;SDS011;15971;50.772;6.100;2022-08-30T05:39:18;14.45;;;4.18;;
28838;SDS011;15971;50.772;6.100;2022-08-30T05:41:44;11.65;;;4.60;;
28838;SDS011;15971;50.772;6.100;2022-08-30T05:44:10;15.02;;;5.30;;
28838;SDS011;15971;50.772;6.100;2022-08-30T05:46:36;11.02;;;4.40;;
28838;SDS011;15971;50.772;6.100;2022-08-30T05:49:03;12.40;;;4.80;;
28838;SDS011;15971;50.772;6.100;2022-08-30T05:51:30;12.07;;;4.80;;
28838;SDS011;15971;50.772;6.100;2022-08-30T05:53:59;10.82;;;4.32;;
28838;SDS011;15971;50.772;6.100;2022-08-30T05:56:35;9.35;;;4.35;;
28838;SDS011;15971;50.772;6.100;2022-08-30T05:59:03;18.48;;;4.75;;
28838;SDS011;15971;50.772;6.100;2022-08-30T06:04:14;17.23;;;4.70;;
28838;SDS011;15971;50.772;6.100;2022-08-30T06:06:41;24.30;;;9.93;;
28838;SDS011;15971;50.772;6.100;2022-08-30T06:09:08;18.23;;;5.32;;
28838;SDS011;15971;50.772;6.100;2022-08-30T06:11:36;10.60;;;4.95;;
28838;SDS011;15971;50.772;6.100;2022-08-30T06:14:02;11.93;;;4.05;;
28838;SDS011;15971;50.772;6.100;2022-08-30T06:16:28;12.98;;;3.90;;
28838;SDS011;15971;50.772;6.100;2022-08-30T06:18:55;13.23;;;4.10;;
28838;SDS011;15971;50.772;6.100;2022-08-30T06:21:24;10.10;;;3.85;;
28838;SDS011;15971;50.772;6.100;2022-08-30T06:23:51;12.20;;;3.53;;
28838;SDS011;15971;50.772;6.100;2022-08-30T06:26:18;13.25;;;3.92;;
28838;SDS011;15971;50.772;6.100;2022-08-30T06:28:44;9.95;;;3.85;;
28838;SDS011;15971;50.772;6.100;2022-08-30T06:31:11;14.88;;;3.72;;
28838;SDS011;15971;50.772;6.100;2022-08-30T06:33:38;7.28;;;2.92;;
28838;SDS011;15971;50.772;6.100;2022-08-30T06:36:15;8.82;;;3.17;;
28838;SDS011;15971;50.772;6.100;2022-08-30T06:38:43;11.25;;;3.45;;
28838;SDS011;15971;50.772;6.100;2022-08-30T06:41:10;9.20;;;3.50;;
28838;SDS011;15971;50.772;6.100;2022-08-30T06:43:37;8.32;;;3.58;;
28838;SDS011;15971;50.772;6.100;2022-08-30T06:46:03;8.13;;;3.17;;
28838;SDS011;15971;50.772;6.100;2022-08-30T06:48:30;5.68;;;2.63;;
28838;SDS011;15971;50.772;6.100;2022-08-30T06:50:59;12.43;;;3.00;;
28838;SDS011;15971;50.772;6.100;2022-08-30T06:53:25;9.20;;;3.47;;
28838;SDS011;15971;50.772;6.100;2022-08-30T06:55:57;6.45;;;3.13;;
28838;SDS011;15971;50.772;6.100;2022-08-30T06:58:24;11.18;;;3.20;;
28838;SDS011;15971;50.772;6.100;2022-08-30T07:00:51;17.42;;;4.10;;
28838;SDS011;15971;50.772;6.100;2022-08-30T07:03:16;7.50;;;2.83;;
28838;SDS011;15971;50.772;6.100;2022-08-30T07:05:42;9.30;;;2.95;;
28838;SDS011;15971;50.772;6.100;2022-08-30T07:08:08;11.90;;;3.42;;
28838;SDS011;15971;50.772;6.100;2022-08-30T07:10:36;7.78;;;2.92;;
28838;SDS011;15971;50.772;6.100;2022-08-30T07:13:02;4.15;;;2.70;;
28838;SDS011;15971;50.772;6.100;2022-08-30T07:15:28;18.38;;;2.95;;
28838;SDS011;15971;50.772;6.100;2022-08-30T07:17:53;7.47;;;3.25;;
28838;SDS011;15971;50.772;6.100;2022-08-30T07:20:37;7.85;;;2.88;;
28838;SDS011;15971;50.772;6.100;2022-08-30T07:23:03;8.48;;;2.67;;
28838;SDS011;15971;50.772;6.100;2022-08-30T07:25:29;8.45;;;2.72;;
28838;SDS011;15971;50.772;6.100;2022-08-30T07:27:54;10.38;;;2.83;;
28838;SDS011;15971;50.772;6.100;2022-08-30T07:30:21;9.95;;;2.72;;
28838;SDS011;15971;50.772;6.100;2022-08-30T07:32:46;7.47;;;3.10;;
28838;SDS011;15971;50.772;6.100;2022-08-30T07:35:13;7.68;;;2.75;;
28838;SDS011;15971;50.772;6.100;2022-08-30T07:37:39;10.85;;;2.40;;
28838;SDS011;15971;50.772;6.100;2022-08-30T07:40:05;11.32;;;2.53;;
28838;SDS011;15971;50.772;6.100;2022-08-30T07:42:30;9.50;;;2.70;;
28838;SDS011;15971;50.772;6.100;2022-08-30T07:44:56;7.28;;;2.45;;
28838;SDS011;15971;50.772;6.100;2022-08-30T07:47:22;11.60;;;2.88;;
28838;SDS011;15971;50.772;6.100;2022-08-30T07:49:47;7.32;;;2.50;;
28838;SDS011;15971;50.772;6.100;2022-08-30T07:52:13;6.32;;;2.42;;
28838;SDS011;15971;50.772;6.100;2022-08-30T07:54:38;9.07;;;2.58;;
28838;SDS011;15971;50.772;6.100;2022-08-30T07:57:04;11.05;;;2.47;;
28838;SDS011;15971;50.772;6.100;2022-08-30T07:59:30;4.28;;;2.55;;
28838;SDS011;15971;50.772;6.100;2022-08-30T08:01:55;6.95;;;2.30;;
28838;SDS011;15971;50.772;6.100;2022-08-30T08:04:21;7.25;;;2.70;;
28838;SDS011;15971;50.772;6.100;2022-08-30T08:06:46;9.23;;;2.20;;
28838;SDS011;15971;50.772;6.100;2022-08-30T08:09:12;10.02;;;2.40;;
28838;SDS011;15971;50.772;6.100;2022-08-30T08:11:38;6.53;;;2.72;;
28838;SDS011;15971;50.772;6.100;2022-08-30T08:14:05;6.43;;;2.90;;
28838;SDS011;15971;50.772;6.100;2022-08-30T08:16:32;9.85;;;2.55;;
28838;SDS011;15971;50.772;6.100;2022-08-30T08:18:59;8.82;;;2.40;;
28838;SDS011;15971;50.772;6.100;2022-08-30T08:21:25;8.05;;;2.88;;
28838;SDS011;15971;50.772;6.100;2022-08-30T08:23:51;12.15;;;3.38;;
28838;SDS011;15971;50.772;6.100;2022-08-30T08:26:17;11.38;;;3.15;;
28838;SDS011;15971;50.772;6.100;2022-08-30T08:28:43;9.82;;;2.97;;
28838;SDS011;15971;50.772;6.100;2022-08-30T08:31:21;13.05;;;3.33;;
28838;SDS011;15971;50.772;6.100;2022-08-30T08:33:48;15.23;;;2.72;;
28838;SDS011;15971;50.772;6.100;2022-08-30T08:36:14;12.20;;;2.35;;
28838;SDS011;15971;50.772;6.100;2022-08-30T08:38:40;5.07;;;2.40;;
28838;SDS011;15971;50.772;6.100;2022-08-30T08:41:12;8.50;;;2.40;;
28838;SDS011;15971;50.772;6.100;2022-08-30T08:43:57;7.43;;;2.70;;
28838;SDS011;15971;50.772;6.100;2022-08-30T08:46:31;12.48;;;3.33;;
28838;SDS011;15971;50.772;6.100;2022-08-30T08:49:04;13.82;;;3.67;;
28838;SDS011;15971;50.772;6.100;2022-08-30T08:51:32;9.55;;;2.90;;
28838;SDS011;15971;50.772;6.100;2022-08-30T08:57:20;6.85;;;2.60;;
28838;SDS011;15971;50.772;6.100;2022-08-30T08:59:46;10.75;;;3.53;;
28838;SDS011;15971;50.772;6.100;2022-08-30T09:02:18;9.27;;;2.55;;
28838;SDS011;15971;50.772;6.100;2022-08-30T09:04:49;5.60;;;2.42;;
28838;SDS011;15971;50.772;6.100;2022-08-30T09:07:22;7.07;;;2.55;;
28838;SDS011;15971;50.772;6.100;2022-08-30T09:09:50;5.70;;;3.00;;
28838;SDS011;15971;50.772;6.100;2022-08-30T09:12:16;9.75;;;2.72;;
28838;SDS011;15971;50.772;6.100;2022-08-30T09:14:42;6.40;;;2.60;;
28838;SDS011;15971;50.772;6.100;2022-08-30T09:17:16;4.68;;;2.42;;
28838;SDS011;15971;50.772;6.100;2022-08-30T09:22:22;12.50;;;3.03;;
28838;SDS011;15971;50.772;6.100;2022-08-30T09:25:17;10.52;;;2.50;;
28838;SDS011;15971;50.772;6.100;2022-08-30T09:27:49;8.02;;;2.20;;
28838;SDS011;15971;50.772;6.100;2022-08-30T09:33:01;10.70;;;2.35;;
28838;SDS011;15971;50.772;6.100;2022-08-30T09:35:35;8.02;;;2.50;;
28838;SDS011;15971;50.772;6.100;2022-08-30T09:38:07;12.45;;;3.28;;
28838;SDS011;15971;50.772;6.100;2022-08-30T09:40:43;10.70;;;2.85;;
28838;SDS011;15971;50.772;6.100;2022-08-30T09:45:44;4.97;;;2.45;;
28838;SDS011;15971;50.772;6.100;2022-08-30T09:48:29;8.60;;;2.28;;
28838;SDS011;15971;50.772;6.100;2022-08-30T09:53:36;8.30;;;2.40;;
28838;SDS011;15971;50.772;6.100;2022-08-30T09:56:22;7.38;;;2.67;;
28838;SDS011;15971;50.772;6.100;2022-08-30T10:01:53;6.90;;;2.60;;
28838;SDS011;15971;50.772;6.100;2022-08-30T10:15:40;11.20;;;2.60;;
28838;SDS011;15971;50.772;6.100;2022-08-30T10:21:10;8.00;;;2.25;;
28838;SDS011;15971;50.772;6.100;2022-08-30T10:24:04;8.48;;;2.53;;
28838;SDS011;15971;50.772;6.100;2022-08-30T10:26:31;7.88;;;3.13;;
28838;SDS011;15971;50.772;6.100;2022-08-30T10:29:15;6.78;;;2.03;;
28838;SDS011;15971;50.772;6.100;2022-08-30T10:34:24;12.43;;;3.15;;
28838;SDS011;15971;50.772;6.100;2022-08-30T10:36:57;10.98;;;3.28;;
28838;SDS011;15971;50.772;6.100;2022-08-30T10:39:30;7.35;;;2.47;;
28838;SDS011;15971;50.772;6.100;2022-08-30T10:42:14;6.10;;;2.60;;
28838;SDS011;15971;50.772;6.100;2022-08-30T10:44:46;5.90;;;2.65;;
28838;SDS011;15971;50.772;6.100;2022-08-30T10:47:27;4.03;;;2.10;;
28838;SDS011;15971;50.772;6.100;2022-08-30T10:50:08;8.48;;;3.10;;
28838;SDS011;15971;50.772;6.100;2022-08-30T10:52:58;11.40;;;2.50;;
28838;SDS011;15971;50.772;6.100;2022-08-30T10:55:44;8.93;;;2.67;;
28838;SDS011;15971;50.772;6.100;2022-08-30T10:58:15;8.90;;;2.85;;
28838;SDS011;15971;50.772;6.100;2022-08-30T11:01:01;5.95;;;2.40;;
28838;SDS011;15971;50.772;6.100;2022-08-30T11:06:17;9.15;;;2.60;;
28838;SDS011;15971;50.772;6.100;2022-08-30T11:13:43;6.15;;;2.22;;
28838;SDS011;15971;50.772;6.100;2022-08-30T11:16:11;9.05;;;2.85;;
28838;SDS011;15971;50.772;6.100;2022-08-30T11:21:50;8.23;;;2.90;;
28838;SDS011;15971;50.772;6.100;2022-08-30T11:31:53;9.18;;;2.85;;
28838;SDS011;15971;50.772;6.100;2022-08-30T11:37:30;9.23;;;2.65;;
28838;SDS011;15971;50.772;6.100;2022-08-30T11:42:47;5.78;;;2.28;;
28838;SDS011;15971;50.772;6.100;2022-08-30T11:47:50;9.20;;;3.05;;
28838;SDS011;15971;50.772;6.100;2022-08-30T11:50:40;8.18;;;3.25;;
28838;SDS011;15971;50.772;6.100;2022-08-30T11:53:30;8.55;;;2.95;;
28838;SDS011;15971;50.772;6.100;2022-08-30T11:56:06;6.82;;;2.53;;
28838;SDS011;15971;50.772;6.100;2022-08-30T12:03:56;8.60;;;2.85;;
28838;SDS011;15971;50.772;6.100;2022-08-30T12:06:51;10.80;;;2.60;;
28838;SDS011;15971;50.772;6.100;2022-08-30T12:11:54;11.02;;;2.55;;
28838;SDS011;15971;50.772;6.100;2022-08-30T12:17:46;6.20;;;2.80;;
28838;SDS011;15971;50.772;6.100;2022-08-30T12:20:52;9.43;;;2.88;;
28838;SDS011;15971;50.772;6.100;2022-08-30T12:25:48;6.47;;;2.30;;
28838;SDS011;15971;50.772;6.100;2022-08-30T12:28:19;12.15;;;3.08;;
28838;SDS011;15971;50.772;6.100;2022-08-30T12:30:47;7.25;;;2.50;;
28838;SDS011;15971;50.772;6.100;2022-08-30T12:33:22;9.80;;;2.67;;
28838;SDS011;15971;50.772;6.100;2022-08-30T12:35:52;7.40;;;2.80;;
28838;SDS011;15971;50.772;6.100;2022-08-30T12:38:19;8.75;;;2.45;;
28838;SDS011;15971;50.772;6.100;2022-08-30T12:40:49;6.97;;;2.30;;
28838;SDS011;15971;50.772;6.100;2022-08-30T12:45:48;7.85;;;2.63;;
28838;SDS011;15971;50.772;6.100;2022-08-30T12:48:15;5.90;;;2.15;;
28838;SDS011;15971;50.772;6.100;2022-08-30T12:53:16;8.15;;;2.33;;
28838;SDS011;15971;50.772;6.100;2022-08-30T12:58:39;8.50;;;2.47;;
28838;SDS011;15971;50.772;6.100;2022-08-30T13:01:33;9.50;;;2.60;;
28838;SDS011;15971;50.772;6.100;2022-08-30T13:04:02;6.75;;;2.70;;
28838;SDS011;15971;50.772;6.100;2022-08-30T13:06:52;5.50;;;2.38;;
28838;SDS011;15971;50.772;6.100;2022-08-30T13:12:01;8.93;;;2.45;;
28838;SDS011;15971;50.772;6.100;2022-08-30T13:14:31;14.65;;;2.80;;
28838;SDS011;15971;50.772;6.100;2022-08-30T13:19:44;11.43;;;2.50;;
28838;SDS011;15971;50.772;6.100;2022-08-30T13:22:28;11.85;;;2.70;;
28838;SDS011;15971;50.772;6.100;2022-08-30T13:24:58;3.35;;;2.05;;
28838;SDS011;15971;50.772;6.100;2022-08-30T13:27:25;9.65;;;3.33;;
28838;SDS011;15971;50.772;6.100;2022-08-30T13:29:51;5.20;;;2.40;;
28838;SDS011;15971;50.772;6.100;2022-08-30T13:32:17;5.95;;;2.60;;
28838;SDS011;15971;50.772;6.100;2022-08-30T13:34:43;8.90;;;2.45;;
28838;SDS011;15971;50.772;6.100;2022-08-30T13:37:09;6.53;;;2.67;;
28838;SDS011;15971;50.772;6.100;2022-08-30T13:39:39;8.68;;;2.60;;
28838;SDS011;15971;50.772;6.100;2022-08-30T13:42:05;5.60;;;2.20;;
28838;SDS011;15971;50.772;6.100;2022-08-30T13:44:31;5.57;;;2.13;;
28838;SDS011;15971;50.772;6.100;2022-08-30T13:46:56;8.98;;;2.58;;
28838;SDS011;15971;50.772;6.100;2022-08-30T13:49:29;6.60;;;2.47;;
28838;SDS011;15971;50.772;6.100;2022-08-30T13:51:57;8.80;;;2.55;;
28838;SDS011;15971;50.772;6.100;2022-08-30T13:54:22;9.05;;;3.85;;
28838;SDS011;15971;50.772;6.100;2022-08-30T13:56:49;9.32;;;2.63;;
28838;SDS011;15971;50.772;6.100;2022-08-30T13:59:16;7.90;;;2.60;;
28838;SDS011;15971;50.772;6.100;2022-08-30T14:01:43;9.32;;;3.10;;
28838;SDS011;15971;50.772;6.100;2022-08-30T14:04:09;15.00;;;2.90;;
28838;SDS011;15971;50.772;6.100;2022-08-30T14:06:35;8.90;;;2.75;;
28838;SDS011;15971;50.772;6.100;2022-08-30T14:09:01;6.63;;;2.50;;
28838;SDS011;15971;50.772;6.100;2022-08-30T14:11:29;10.38;;;3.03;;
28838;SDS011;15971;50.772;6.100;2022-08-30T14:13:55;9.05;;;2.85;;
28838;SDS011;15971;50.772;6.100;2022-08-30T14:16:20;6.45;;;2.40;;
28838;SDS011;15971;50.772;6.100;2022-08-30T14:18:46;5.40;;;2.63;;
28838;SDS011;15971;50.772;6.100;2022-08-30T14:21:11;6.65;;;2.88;;
28838;SDS011;15971;50.772;6.100;2022-08-30T14:23:37;14.20;;;2.78;;
28838;SDS011;15971;50.772;6.100;2022-08-30T14:26:04;7.72;;;2.70;;
28838;SDS011;15971;50.772;6.100;2022-08-30T14:28:44;9.30;;;3.10;;
28838;SDS011;15971;50.772;6.100;2022-08-30T14:31:11;9.23;;;2.88;;
28838;SDS011;15971;50.772;6.100;2022-08-30T14:33:37;11.98;;;3.20;;
28838;SDS011;15971;50.772;6.100;2022-08-30T14:36:03;10.20;;;2.70;;
28838;SDS011;15971;50.772;6.100;2022-08-30T14:38:29;9.02;;;2.78;;
28838;SDS011;15971;50.772;6.100;2022-08-30T14:40:55;9.10;;;3.78;;
28838;SDS011;15971;50.772;6.100;2022-08-30T14:43:21;13.25;;;3.40;;
28838;SDS011;15971;50.772;6.100;2022-08-30T14:45:47;8.60;;;2.70;;
28838;SDS011;15971;50.772;6.100;2022-08-30T14:48:12;6.57;;;2.83;;
28838;SDS011;15971;50.772;6.100;2022-08-30T14:50:38;10.40;;;2.72;;
28838;SDS011;15971;50.772;6.100;2022-08-30T14:53:04;7.05;;;3.05;;
28838;SDS011;15971;50.772;6.100;2022-08-30T14:55:31;8.93;;;2.88;;
28838;SDS011;15971;50.772;6.100;2022-08-30T14:57:57;8.15;;;2.50;;
28838;SDS011;15971;50.772;6.100;2022-08-30T15:00:23;9.07;;;2.72;;
28838;SDS011;15971;50.772;6.100;2022-08-30T15:02:49;7.78;;;3.10;;
28838;SDS011;15971;50.772;6.100;2022-08-30T15:05:15;7.47;;;2.67;;
28838;SDS011;15971;50.772;6.100;2022-08-30T15:07:41;7.85;;;2.78;;
28838;SDS011;15971;50.772;6.100;2022-08-30T15:10:08;11.23;;;3.03;;
28838;SDS011;15971;50.772;6.100;2022-08-30T15:12:35;7.60;;;3.28;;
28838;SDS011;15971;50.772;6.100;2022-08-30T15:15:00;9.45;;;2.60;;
28838;SDS011;15971;50.772;6.100;2022-08-30T15:17:26;9.00;;;3.08;;
28838;SDS011;15971;50.772;6.100;2022-08-30T15:19:51;8.93;;;3.10;;
28838;SDS011;15971;50.772;6.100;2022-08-30T15:22:17;7.10;;;2.42;;
28838;SDS011;15971;50.772;6.100;2022-08-30T15:24:43;9.75;;;2.67;;
28838;SDS011;15971;50.772;6.100;2022-08-30T15:27:08;7.82;;;3.28;;
28838;SDS011;15971;50.772;6.100;2022-08-30T15:29:34;7.45;;;3.13;;
28838;SDS011;15971;50.772;6.100;2022-08-30T15:32:00;8.73;;;3.08;;
28838;SDS011;15971;50.772;6.100;2022-08-30T15:34:27;6.82;;;2.67;;
28838;SDS011;15971;50.772;6.100;2022-08-30T15:36:53;16.10;;;3.20;;
28838;SDS011;15971;50.772;6.100;2022-08-30T15:39:20;12.00;;;3.45;;
28838;SDS011;15971;50.772;6.100;2022-08-30T15:41:45;6.85;;;2.53;;
28838;SDS011;15971;50.772;6.100;2022-08-30T15:44:13;9.43;;;2.97;;
28838;SDS011;15971;50.772;6.100;2022-08-30T15:46:40;6.47;;;2.90;;
28838;SDS011;15971;50.772;6.100;2022-08-30T15:49:17;9.15;;;3.08;;
28838;SDS011;15971;50.772;6.100;2022-08-30T15:51:45;12.02;;;2.63;;
28838;SDS011;15971;50.772;6.100;2022-08-30T15:54:12;13.43;;;2.80;;
28838;SDS011;15971;50.772;6.100;2022-08-30T15:56:40;12.57;;;2.70;;
28838;SDS011;15971;50.772;6.100;2022-08-30T15:59:06;10.60;;;3.03;;
28838;SDS011;15971;50.772;6.100;2022-08-30T16:01:32;9.93;;;2.50;;
28838;SDS011;15971;50.772;6.100;2022-08-30T16:03:58;11.13;;;3.42;;
28838;SDS011;15971;50.772;6.100;2022-08-30T16:06:28;9.00;;;2.55;;
28838;SDS011;15971;50.772;6.100;2022-08-30T16:08:57;9.07;;;1.95;;
28838;SDS011;15971;50.772;6.100;2022-08-30T16:11:23;9.73;;;2.80;;
28838;SDS011;15971;50.772;6.100;2022-08-30T16:13:50;5.53;;;2.67;;
28838;SDS011;15971;50.772;6.100;2022-08-30T16:16:17;9.77;;;3.03;;
28838;SDS011;15971;50.772;6.100;2022-08-30T16:18:44;14.30;;;2.85;;
28838;SDS011;15971;50.772;6.100;2022-08-30T16:21:12;9.25;;;3.05;;